createdAt,value
2018-05-03T00:00:17.469Z,0.00
2018-05-03T00:01:17.425Z,0.00
2018-05-03T00:02:17.381Z,0.00
2018-05-03T00:03:17.336Z,0.00
2018-05-03T00:04:17.291Z,0.00
2018-05-03T00:05:17.246Z,0.00
2018-05-03T00:06:17.200Z,0.00
2018-05-03T00:07:17.156Z,0.00
2018-05-03T00:08:17.111Z,0.00
2018-05-03T00:09:17.066Z,0.00
2018-05-03T00:10:17.021Z,0.00
2018-05-03T00:11:16.978Z,0.00
2018-05-03T00:12:16.931Z,0.00
2018-05-03T00:13:16.886Z,0.00
2018-05-03T00:14:16.847Z,0.00
2018-05-03T00:15:16.798Z,0.00
2018-05-03T00:16:16.753Z,0.00
2018-05-03T00:17:16.718Z,0.00
2018-05-03T00:18:16.720Z,0.00
2018-05-03T00:19:16.615Z,0.00
2018-05-03T00:20:16.581Z,0.00
2018-05-03T00:21:16.529Z,0.00
2018-05-03T00:22:16.482Z,0.00
2018-05-03T00:23:16.439Z,0.00
2018-05-03T00:24:16.390Z,0.00
2018-05-03T00:25:16.345Z,0.00
2018-05-03T00:26:16.301Z,0.00
2018-05-03T00:27:16.256Z,0.00
2018-05-03T00:28:16.214Z,0.00
2018-05-03T00:29:16.166Z,0.00
2018-05-03T00:30:16.121Z,0.00
2018-05-03T00:31:16.074Z,0.00
2018-05-03T00:32:16.029Z,0.00
2018-05-03T00:33:15.985Z,0.00
2018-05-03T00:34:15.940Z,0.00
2018-05-03T00:35:15.893Z,0.00
2018-05-03T00:36:15.851Z,0.00
2018-05-03T00:37:15.804Z,0.00
2018-05-03T00:38:15.761Z,0.00
2018-05-03T00:39:15.719Z,0.00
2018-05-03T00:40:15.668Z,0.00
2018-05-03T00:41:15.616Z,0.00
2018-05-03T00:42:15.578Z,0.00
2018-05-03T00:43:15.526Z,0.00
2018-05-03T00:44:15.485Z,0.00
2018-05-03T00:45:15.445Z,0.00
2018-05-03T00:46:15.405Z,0.00
2018-05-03T00:47:15.346Z,0.00
2018-05-03T00:48:15.309Z,0.00
2018-05-03T00:49:15.257Z,0.00
2018-05-03T00:50:15.216Z,0.00
2018-05-03T00:51:15.168Z,0.00
2018-05-03T00:52:15.126Z,0.00
2018-05-03T00:53:15.075Z,0.00
2018-05-03T00:54:15.071Z,0.00
2018-05-03T00:55:14.986Z,0.00
2018-05-03T00:56:14.939Z,0.00
2018-05-03T00:57:14.898Z,0.00
2018-05-03T00:58:14.850Z,0.00
2018-05-03T00:59:14.806Z,0.00
2018-05-03T01:00:14.759Z,0.00
2018-05-03T01:01:14.715Z,0.00
2018-05-03T01:02:14.670Z,0.00
2018-05-03T01:03:14.622Z,0.00
2018-05-03T01:04:14.581Z,0.00
2018-05-03T01:05:14.538Z,0.00
2018-05-03T01:06:14.490Z,0.00
2018-05-03T01:07:14.443Z,0.00
2018-05-03T01:08:14.398Z,0.00
2018-05-03T01:09:14.350Z,0.00
2018-05-03T01:10:14.305Z,0.00
2018-05-03T01:11:14.266Z,0.00
2018-05-03T01:12:14.216Z,0.00
2018-05-03T01:13:14.171Z,0.00
2018-05-03T01:14:14.128Z,0.00
2018-05-03T01:15:14.079Z,0.00
2018-05-03T01:16:14.036Z,0.00
2018-05-03T01:17:13.989Z,0.00
2018-05-03T01:18:13.944Z,0.00
2018-05-03T01:19:13.899Z,0.00
2018-05-03T01:20:13.852Z,0.00
2018-05-03T01:21:13.806Z,0.00
2018-05-03T01:22:13.760Z,0.00
2018-05-03T01:23:13.716Z,0.00
2018-05-03T01:24:13.671Z,0.00
2018-05-03T01:25:13.627Z,0.00
2018-05-03T01:26:13.580Z,0.00
2018-05-03T01:27:13.533Z,0.00
2018-05-03T01:28:13.487Z,0.00
2018-05-03T01:29:13.442Z,0.00
2018-05-03T01:30:13.399Z,0.00
2018-05-03T01:31:13.351Z,0.00
2018-05-03T01:32:13.328Z,0.00
2018-05-03T01:33:13.261Z,0.00
2018-05-03T01:34:13.214Z,0.00
2018-05-03T01:35:13.172Z,0.00
2018-05-03T01:36:13.123Z,0.00
2018-05-03T01:37:13.083Z,0.00
2018-05-03T01:38:13.036Z,0.00
2018-05-03T01:39:12.989Z,0.00
2018-05-03T01:40:12.943Z,0.00
2018-05-03T01:41:12.903Z,0.00
2018-05-03T01:42:12.852Z,0.00
2018-05-03T01:43:12.817Z,0.00
2018-05-03T01:44:12.766Z,0.00
2018-05-03T01:45:12.719Z,0.00
2018-05-03T01:46:12.674Z,0.00
2018-05-03T01:47:12.627Z,0.00
2018-05-03T01:48:12.582Z,0.00
2018-05-03T01:49:12.535Z,0.00
2018-05-03T01:50:12.489Z,0.00
2018-05-03T01:51:12.444Z,0.00
2018-05-03T01:52:12.401Z,0.00
2018-05-03T01:53:12.354Z,0.00
2018-05-03T01:54:12.308Z,0.00
2018-05-03T01:55:12.260Z,0.00
2018-05-03T01:56:12.214Z,0.00
2018-05-03T01:57:12.172Z,0.00
2018-05-03T01:58:12.123Z,0.00
2018-05-03T01:59:12.079Z,0.00
2018-05-03T02:00:12.033Z,0.00
2018-05-03T02:01:11.987Z,0.00
2018-05-03T02:02:11.941Z,0.00
2018-05-03T02:03:11.895Z,0.00
2018-05-03T02:04:11.849Z,0.00
2018-05-03T02:05:11.803Z,0.00
2018-05-03T02:06:11.758Z,0.00
2018-05-03T02:07:11.711Z,0.00
2018-05-03T02:08:11.667Z,0.00
2018-05-03T02:09:11.619Z,0.00
2018-05-03T02:10:11.577Z,0.00
2018-05-03T02:11:11.528Z,0.00
2018-05-03T02:12:11.484Z,0.00
2018-05-03T02:13:11.437Z,0.00
2018-05-03T02:14:11.392Z,0.00
2018-05-03T02:15:11.383Z,0.00
2018-05-03T02:16:11.300Z,0.00
2018-05-03T02:17:11.254Z,0.00
2018-05-03T02:18:11.209Z,0.00
2018-05-03T02:19:11.160Z,0.00
2018-05-03T02:20:11.116Z,0.00
2018-05-03T02:21:11.075Z,0.00
2018-05-03T02:22:11.025Z,0.00
2018-05-03T02:23:10.980Z,0.00
2018-05-03T02:24:10.994Z,0.00
2018-05-03T02:25:10.888Z,0.00
2018-05-03T02:26:10.839Z,0.00
2018-05-03T02:27:10.796Z,0.00
2018-05-03T02:28:10.749Z,0.00
2018-05-03T02:29:10.703Z,0.00
2018-05-03T02:30:10.660Z,0.00
2018-05-03T02:31:10.618Z,0.00
2018-05-03T02:32:10.576Z,0.00
2018-05-03T02:33:10.522Z,0.00
2018-05-03T02:34:10.477Z,0.00
2018-05-03T02:35:10.428Z,0.00
2018-05-03T02:36:10.384Z,0.00
2018-05-03T02:37:10.345Z,0.00
2018-05-03T02:38:10.293Z,0.00
2018-05-03T02:39:10.245Z,0.00
2018-05-03T02:40:10.205Z,0.00
2018-05-03T02:41:10.156Z,0.00
2018-05-03T02:42:10.115Z,0.00
2018-05-03T02:43:10.068Z,0.00
2018-05-03T02:44:10.016Z,0.00
2018-05-03T02:45:10.039Z,0.00
2018-05-03T02:46:09.928Z,0.00
2018-05-03T02:47:09.883Z,0.00
2018-05-03T02:48:09.833Z,0.00
2018-05-03T02:49:09.790Z,0.00
2018-05-03T02:50:09.762Z,0.00
2018-05-03T02:51:09.697Z,0.00
2018-05-03T02:52:09.648Z,0.00
2018-05-03T02:53:09.605Z,0.00
2018-05-03T02:54:09.560Z,0.00
2018-05-03T02:55:09.516Z,0.00
2018-05-03T02:56:09.469Z,0.00
2018-05-03T02:57:09.421Z,0.00
2018-05-03T02:58:09.378Z,0.00
2018-05-03T02:59:09.332Z,0.00
2018-05-03T03:00:09.287Z,0.00
2018-05-03T03:01:09.244Z,0.00
2018-05-03T03:02:09.196Z,0.00
2018-05-03T03:03:09.151Z,0.00
2018-05-03T03:04:09.105Z,0.00
2018-05-03T03:05:09.057Z,0.00
2018-05-03T03:06:09.016Z,0.00
2018-05-03T03:07:08.965Z,0.00
2018-05-03T03:08:08.924Z,0.00
2018-05-03T03:09:08.873Z,0.00
2018-05-03T03:10:08.831Z,0.00
2018-05-03T03:11:08.787Z,0.00
2018-05-03T03:12:08.741Z,0.00
2018-05-03T03:13:08.753Z,0.00
2018-05-03T03:14:08.651Z,0.00
2018-05-03T03:15:08.598Z,0.00
2018-05-03T03:16:08.555Z,0.00
2018-05-03T03:17:08.574Z,0.00
2018-05-03T03:18:08.462Z,0.00
2018-05-03T03:19:08.415Z,0.00
2018-05-03T03:20:08.371Z,0.00
2018-05-03T03:21:08.327Z,0.00
2018-05-03T03:22:08.302Z,0.00
2018-05-03T03:23:08.233Z,0.00
2018-05-03T03:24:08.188Z,0.00
2018-05-03T03:25:08.145Z,0.00
2018-05-03T03:26:08.097Z,0.00
2018-05-03T03:27:08.049Z,0.00
2018-05-03T03:28:08.007Z,0.00
2018-05-03T03:29:07.963Z,0.00
2018-05-03T03:30:07.918Z,0.00
2018-05-03T03:31:07.872Z,4.00
2018-05-03T03:32:07.824Z,4.00
2018-05-03T03:33:07.777Z,4.00
2018-05-03T03:34:07.730Z,0.00
2018-05-03T03:35:07.685Z,4.00
2018-05-03T03:36:07.644Z,4.00
2018-05-03T03:37:07.599Z,4.00
2018-05-03T03:38:07.553Z,4.00
2018-05-03T03:39:07.504Z,4.00
2018-05-03T03:40:07.455Z,4.00
2018-05-03T03:41:07.409Z,8.00
2018-05-03T03:42:07.366Z,4.00
2018-05-03T03:43:07.320Z,8.00
2018-05-03T03:44:07.275Z,8.00
2018-05-03T03:45:07.229Z,12.00
2018-05-03T03:46:07.183Z,8.00
2018-05-03T03:47:07.138Z,12.00
2018-05-03T03:48:07.091Z,16.00
2018-05-03T03:49:07.052Z,16.00
2018-05-03T03:50:07.003Z,20.00
2018-05-03T03:51:06.953Z,20.00
2018-05-03T03:52:06.907Z,20.00
2018-05-03T03:53:06.927Z,28.00
2018-05-03T03:54:06.818Z,32.00
2018-05-03T03:55:06.769Z,36.00
2018-05-03T03:56:06.725Z,40.00
2018-05-03T03:57:06.679Z,44.00
2018-05-03T03:58:06.643Z,48.00
2018-05-03T03:59:06.592Z,48.00
2018-05-03T04:00:06.547Z,56.00
2018-05-03T04:01:06.498Z,60.00
2018-05-03T04:02:06.465Z,60.00
2018-05-03T04:03:06.413Z,68.00
2018-05-03T04:04:06.363Z,68.00
2018-05-03T04:05:06.321Z,68.00
2018-05-03T04:06:06.277Z,68.00
2018-05-03T04:07:06.222Z,72.00
2018-05-03T04:08:06.180Z,72.00
2018-05-03T04:09:06.135Z,68.00
2018-05-03T04:10:06.088Z,72.00
2018-05-03T04:11:06.041Z,68.00
2018-05-03T04:12:05.996Z,72.00
2018-05-03T04:13:05.956Z,72.00
2018-05-03T04:14:05.907Z,72.00
2018-05-03T04:15:05.864Z,76.00
2018-05-03T04:16:05.817Z,80.00
2018-05-03T04:17:05.769Z,84.00
2018-05-03T04:18:05.725Z,92.00
2018-05-03T04:19:05.679Z,100.00
2018-05-03T04:20:05.632Z,108.00
2018-05-03T04:21:05.589Z,116.00
2018-05-03T04:22:05.554Z,132.00
2018-05-03T04:23:05.501Z,148.00
2018-05-03T04:24:05.500Z,168.00
2018-05-03T04:25:05.405Z,188.00
2018-05-03T04:26:05.431Z,216.00
2018-05-03T04:27:05.314Z,244.00
2018-05-03T04:28:05.268Z,276.00
2018-05-03T04:29:05.221Z,304.00
2018-05-03T04:30:05.179Z,324.00
2018-05-03T04:31:05.177Z,340.00
2018-05-03T04:32:05.087Z,356.00
2018-05-03T04:33:05.058Z,364.00
2018-05-03T04:34:05.098Z,376.00
2018-05-03T04:35:04.949Z,388.00
2018-05-03T04:36:04.909Z,396.00
2018-05-03T04:37:04.861Z,408.00
2018-05-03T04:38:04.818Z,420.00
2018-05-03T04:39:04.769Z,428.00
2018-05-03T04:40:04.723Z,436.00
2018-05-03T04:41:04.678Z,452.00
2018-05-03T04:42:04.632Z,464.00
2018-05-03T04:43:04.584Z,488.00
2018-05-03T04:44:04.545Z,516.00
2018-05-03T04:45:04.496Z,552.00
2018-05-03T04:46:04.452Z,592.00
2018-05-03T04:47:04.404Z,640.00
2018-05-03T04:48:04.358Z,680.00
2018-05-03T04:49:04.312Z,724.00
2018-05-03T04:50:04.267Z,760.00
2018-05-03T04:51:04.220Z,796.00
2018-05-03T04:52:04.176Z,840.00
2018-05-03T04:53:04.129Z,888.00
2018-05-03T04:54:04.133Z,956.00
2018-05-03T04:55:04.041Z,1024.00
2018-05-03T04:56:04.002Z,1100.00
2018-05-03T04:57:03.956Z,1152.00
2018-05-03T04:58:03.908Z,1212.00
2018-05-03T04:59:03.864Z,1256.00
2018-05-03T05:00:03.812Z,1284.00
2018-05-03T05:01:03.764Z,1316.00
2018-05-03T05:02:03.729Z,1348.00
2018-05-03T05:03:03.674Z,1388.00
2018-05-03T05:04:03.629Z,1428.00
2018-05-03T05:05:03.586Z,1488.00
2018-05-03T05:06:03.548Z,1544.00
2018-05-03T05:07:03.492Z,1588.00
2018-05-03T05:08:03.522Z,1612.00
2018-05-03T05:09:03.402Z,1652.00
2018-05-03T05:10:03.410Z,1716.00
2018-05-03T05:11:03.317Z,1788.00
2018-05-03T05:12:03.269Z,1856.00
2018-05-03T05:13:03.243Z,1928.00
2018-05-03T05:14:03.172Z,1980.00
2018-05-03T05:15:03.135Z,2032.00
2018-05-03T05:16:03.107Z,2080.00
2018-05-03T05:17:03.042Z,2128.00
2018-05-03T05:18:03.000Z,2168.00
2018-05-03T05:19:02.965Z,2200.00
2018-05-03T05:20:02.906Z,2200.00
2018-05-03T05:21:02.867Z,2200.00
2018-05-03T05:22:02.864Z,2200.00
2018-05-03T05:23:02.782Z,2216.00
2018-05-03T05:24:02.718Z,2248.00
2018-05-03T05:25:02.684Z,2288.00
2018-05-03T05:26:02.633Z,2328.00
2018-05-03T05:27:02.589Z,2364.00
2018-05-03T05:28:02.549Z,2388.00
2018-05-03T05:29:02.504Z,2396.00
2018-05-03T05:30:02.459Z,2384.00
2018-05-03T05:31:02.621Z,2384.00
2018-05-03T05:32:02.361Z,2368.00
2018-05-03T05:33:02.315Z,2352.00
2018-05-03T05:34:02.268Z,2372.00
2018-05-03T05:35:02.227Z,2432.00
2018-05-03T05:36:02.175Z,2500.00
2018-05-03T05:37:03.063Z,2580.00
2018-05-03T05:38:02.106Z,2668.00
2018-05-03T05:39:02.134Z,2764.00
2018-05-03T05:40:01.996Z,2872.00
2018-05-03T05:41:01.950Z,2988.00
2018-05-03T05:42:01.903Z,3096.00
2018-05-03T05:43:01.864Z,3168.00
2018-05-03T05:44:01.819Z,3184.00
2018-05-03T05:45:01.770Z,3144.00
2018-05-03T05:46:01.742Z,3076.00
2018-05-03T05:47:01.686Z,3016.00
2018-05-03T05:48:01.632Z,3000.00
2018-05-03T05:49:01.596Z,3016.00
2018-05-03T05:50:01.570Z,3096.00
2018-05-03T05:51:01.562Z,3224.00
2018-05-03T05:52:01.458Z,3348.00
2018-05-03T05:53:01.414Z,3448.00
2018-05-03T05:54:01.371Z,3500.00
2018-05-03T05:55:01.324Z,3496.00
2018-05-03T05:56:01.285Z,3540.00
2018-05-03T05:57:01.237Z,3608.00
2018-05-03T05:58:01.184Z,3680.00
2018-05-03T05:59:01.139Z,3780.00
2018-05-03T06:00:01.094Z,3888.00
2018-05-03T06:01:01.049Z,3964.00
2018-05-03T06:02:01.004Z,3992.00
2018-05-03T06:03:00.957Z,4032.00
2018-05-03T06:04:00.919Z,4068.00
2018-05-03T06:05:00.877Z,4100.00
2018-05-03T06:06:00.827Z,4080.00
2018-05-03T06:07:00.779Z,4024.00
2018-05-03T06:08:00.736Z,3928.00
2018-05-03T06:09:00.690Z,3812.00
2018-05-03T06:10:00.649Z,3680.00
2018-05-03T06:11:00.601Z,3532.00
2018-05-03T06:12:00.554Z,3384.00
2018-05-03T06:13:00.512Z,3256.00
2018-05-03T06:14:00.466Z,3164.00
2018-05-03T06:15:00.422Z,3100.00
2018-05-03T06:16:00.384Z,3052.00
2018-05-03T06:17:00.332Z,3012.00
2018-05-03T06:18:00.292Z,2996.00
2018-05-03T06:19:00.247Z,2996.00
2018-05-03T06:20:00.207Z,3024.00
2018-05-03T06:21:00.159Z,3064.00
2018-05-03T06:22:00.114Z,3076.00
2018-05-03T06:26:20.434Z,2896.00
2018-05-03T06:27:20.368Z,2888.00
2018-05-03T06:29:13.182Z,2912.00
2018-05-03T06:30:13.117Z,2968.00
2018-05-03T06:32:06.410Z,3064.00
2018-05-03T06:33:06.357Z,3132.00
2018-05-03T06:34:06.314Z,3144.00
2018-05-03T06:35:06.267Z,3104.00
2018-05-03T06:36:06.225Z,3124.00
2018-05-03T06:37:06.185Z,3168.00
2018-05-03T06:38:06.137Z,3144.00
2018-05-03T06:39:06.093Z,3064.00
2018-05-03T06:40:06.045Z,2968.00
2018-05-03T06:41:06.011Z,2888.00
2018-05-03T06:42:05.955Z,2864.00
2018-05-03T06:43:05.961Z,2892.00
2018-05-03T06:44:05.868Z,2936.00
2018-05-03T06:45:20.515Z,2984.00
2018-05-03T06:46:05.774Z,3032.00
2018-05-03T06:47:05.733Z,3080.00
2018-05-03T06:48:05.689Z,3120.00
2018-05-03T06:49:05.646Z,3140.00
2018-05-03T06:50:05.601Z,3144.00
2018-05-03T06:51:05.554Z,3168.00
2018-05-03T06:52:05.514Z,3232.00
2018-05-03T06:53:05.462Z,3332.00
2018-05-03T06:54:05.421Z,3468.00
2018-05-03T06:55:05.372Z,3664.00
2018-05-03T06:56:05.353Z,3820.00
2018-05-03T06:57:05.277Z,3968.00
2018-05-03T06:58:05.240Z,4136.00
2018-05-03T06:59:05.197Z,4324.00
2018-05-03T07:00:05.152Z,4576.00
2018-05-03T07:01:05.121Z,4880.00
2018-05-03T07:02:05.062Z,5180.00
2018-05-03T07:03:05.038Z,5436.00
2018-05-03T07:04:04.992Z,5676.00
2018-05-03T07:05:04.936Z,5872.00
2018-05-03T07:06:04.891Z,5892.00
2018-05-03T07:07:04.859Z,5936.00
2018-05-03T07:08:04.805Z,6016.00
2018-05-03T07:09:04.760Z,6072.00
2018-05-03T07:10:04.712Z,6156.00
2018-05-03T07:11:04.668Z,6340.00
2018-05-03T07:12:04.624Z,6740.00
2018-05-03T07:13:05.513Z,7156.00
2018-05-03T07:14:04.537Z,7592.00
2018-05-03T07:15:04.498Z,7944.00
2018-05-03T07:16:04.450Z,9372.00
2018-05-03T07:17:04.405Z,9640.00
2018-05-03T07:18:04.359Z,9192.00
2018-05-03T07:19:04.314Z,10324.00
2018-05-03T07:20:04.267Z,9640.00
2018-05-03T07:21:04.226Z,10048.00
2018-05-03T07:22:04.178Z,10884.00
2018-05-03T07:23:04.151Z,10128.00
2018-05-03T07:24:04.094Z,10648.00
2018-05-03T07:25:04.048Z,10280.00
2018-05-03T07:26:04.006Z,10316.00
2018-05-03T07:27:03.969Z,10976.00
2018-05-03T07:28:03.917Z,10748.00
2018-05-03T07:29:03.881Z,9516.00
2018-05-03T07:30:03.833Z,9336.00
2018-05-03T07:31:03.799Z,9476.00
2018-05-03T07:32:03.750Z,9368.00
2018-05-03T07:33:03.705Z,9276.00
2018-05-03T07:34:03.664Z,9192.00
2018-05-03T07:35:03.624Z,9052.00
2018-05-03T07:36:03.581Z,8856.00
2018-05-03T07:37:03.535Z,8620.00
2018-05-03T07:38:03.494Z,8476.00
2018-05-03T07:39:03.452Z,8420.00
2018-05-03T07:40:03.415Z,8420.00
2018-05-03T07:41:03.363Z,8568.00
2018-05-03T07:42:03.328Z,8748.00
2018-05-03T07:43:03.291Z,9136.00
2018-05-03T07:44:03.237Z,9024.00
2018-05-03T07:45:03.212Z,9064.00
2018-05-03T07:46:03.151Z,9088.00
2018-05-03T07:47:03.111Z,9064.00
2018-05-03T07:48:03.066Z,9008.00
2018-05-03T07:49:03.026Z,8944.00
2018-05-03T07:50:02.997Z,8916.00
2018-05-03T07:51:02.942Z,8952.00
2018-05-03T07:52:02.916Z,8984.00
2018-05-03T07:53:02.965Z,8956.00
2018-05-03T07:54:02.935Z,9548.00
2018-05-03T07:55:02.944Z,8544.00
2018-05-03T07:56:02.897Z,8344.00
2018-05-03T07:57:02.779Z,8264.00
2018-05-03T07:58:02.765Z,8256.00
2018-05-03T07:59:02.619Z,8308.00
2018-05-03T08:00:02.565Z,8352.00
2018-05-03T08:01:02.518Z,8384.00
2018-05-03T08:02:02.511Z,8452.00
2018-05-03T08:03:02.436Z,8568.00
2018-05-03T08:04:02.400Z,8776.00
2018-05-03T08:05:02.351Z,8996.00
2018-05-03T08:06:02.316Z,9124.00
2018-05-03T08:07:02.276Z,9204.00
2018-05-03T08:08:02.225Z,9232.00
2018-05-03T08:09:02.230Z,9232.00
2018-05-03T08:10:02.140Z,9228.00
2018-05-03T08:11:02.109Z,9288.00
2018-05-03T08:12:02.068Z,9416.00
2018-05-03T08:13:02.010Z,9452.00
2018-05-03T08:14:01.978Z,9704.00
2018-05-03T08:15:01.932Z,8924.00
2018-05-03T08:16:02.037Z,8552.00
2018-05-03T08:17:01.907Z,8324.00
2018-05-03T08:18:01.805Z,8300.00
2018-05-03T08:19:01.770Z,8492.00
2018-05-03T08:20:01.727Z,8844.00
2018-05-03T08:21:01.679Z,9240.00
2018-05-03T08:22:01.640Z,9624.00
2018-05-03T08:23:01.615Z,10052.00
2018-05-03T08:24:01.551Z,10516.00
2018-05-03T08:25:22.503Z,10896.00
2018-05-03T08:26:01.468Z,11288.00
2018-05-03T08:27:01.427Z,11620.00
2018-05-03T08:29:01.341Z,10948.00
2018-05-03T08:30:01.309Z,11892.00
2018-05-03T08:31:01.254Z,10532.00
2018-05-03T08:32:01.217Z,11236.00
2018-05-03T08:34:32.758Z,11872.00
2018-05-03T08:35:32.827Z,12344.00
2018-05-03T08:37:25.995Z,11660.00
2018-05-03T08:38:25.923Z,10628.00
2018-05-03T08:39:25.889Z,10344.00
2018-05-03T08:40:25.846Z,9648.00
2018-05-03T08:41:25.805Z,9800.00
2018-05-03T08:42:25.778Z,9024.00
2018-05-03T08:43:25.723Z,8984.00
2018-05-03T08:44:25.678Z,8964.00
2018-05-03T08:45:25.638Z,8128.00
2018-05-03T08:46:25.595Z,8020.00
2018-05-03T08:47:25.553Z,8188.00
2018-05-03T08:48:25.518Z,8460.00
2018-05-03T08:49:25.473Z,8816.00
2018-05-03T08:50:25.616Z,9368.00
2018-05-03T08:51:25.579Z,10152.00
2018-05-03T08:52:25.934Z,10848.00
2018-05-03T08:53:25.444Z,10832.00
2018-05-03T08:54:25.259Z,10832.00
2018-05-03T08:55:25.300Z,11056.00
2018-05-03T08:56:25.377Z,11020.00
2018-05-03T08:57:25.148Z,10568.00
2018-05-03T08:58:25.106Z,10900.00
2018-05-03T08:59:25.058Z,10936.00
2018-05-03T09:00:25.022Z,10868.00
2018-05-03T09:01:25.019Z,10416.00
2018-05-03T09:02:24.943Z,9472.00
2018-05-03T09:03:24.894Z,10056.00
2018-05-03T09:04:24.857Z,11384.00
2018-05-03T09:05:24.805Z,10064.00
2018-05-03T09:06:24.767Z,10068.00
2018-05-03T09:07:24.725Z,9016.00
2018-05-03T09:08:24.683Z,9020.00
2018-05-03T09:09:24.649Z,9320.00
2018-05-03T09:10:24.600Z,9584.00
2018-05-03T09:11:24.565Z,10132.00
2018-05-03T09:12:24.516Z,10036.00
2018-05-03T09:13:24.514Z,10092.00
2018-05-03T09:14:24.434Z,10912.00
2018-05-03T09:15:24.397Z,10152.00
2018-05-03T09:16:24.353Z,9824.00
2018-05-03T09:17:24.312Z,9464.00
2018-05-03T09:18:24.276Z,9288.00
2018-05-03T09:19:24.224Z,9288.00
2018-05-03T09:20:24.186Z,9436.00
2018-05-03T09:21:24.148Z,9816.00
2018-05-03T09:22:45.117Z,10588.00
2018-05-03T09:23:24.090Z,11260.00
2018-05-03T09:24:24.021Z,11868.00
2018-05-03T09:25:23.979Z,12116.00
2018-05-03T09:26:23.946Z,12092.00
2018-05-03T09:27:23.898Z,11876.00
2018-05-03T09:28:23.856Z,11748.00
2018-05-03T09:29:23.809Z,11672.00
2018-05-03T09:30:23.774Z,11648.00
2018-05-03T09:31:23.736Z,11620.00
2018-05-03T09:32:23.699Z,11508.00
2018-05-03T09:33:23.681Z,11540.00
2018-05-03T09:34:23.615Z,11664.00
2018-05-03T09:35:23.564Z,11768.00
2018-05-03T09:36:23.527Z,11844.00
2018-05-03T09:37:23.490Z,11876.00
2018-05-03T09:38:23.447Z,11864.00
2018-05-03T09:39:23.412Z,11820.00
2018-05-03T09:40:23.367Z,11712.00
2018-05-03T09:41:23.325Z,11564.00
2018-05-03T09:42:23.285Z,11448.00
2018-05-03T09:43:23.245Z,11400.00
2018-05-03T09:44:23.289Z,11356.00
2018-05-03T09:45:23.166Z,11316.00
2018-05-03T09:46:23.123Z,11252.00
2018-05-03T09:47:23.080Z,11180.00
2018-05-03T09:48:23.042Z,11156.00
2018-05-03T09:49:23.084Z,11192.00
2018-05-03T09:50:23.044Z,11296.00
2018-05-03T09:51:22.921Z,11460.00
2018-05-03T09:52:22.937Z,11612.00
2018-05-03T09:53:22.847Z,11700.00
2018-05-03T09:54:22.804Z,11732.00
2018-05-03T09:55:22.765Z,11768.00
2018-05-03T09:56:22.719Z,11832.00
2018-05-03T09:57:22.689Z,11900.00
2018-05-03T09:58:22.641Z,11960.00
2018-05-03T09:59:22.655Z,12028.00
2018-05-03T10:00:22.561Z,12076.00
2018-05-03T10:01:22.515Z,12096.00
2018-05-03T10:02:22.478Z,12104.00
2018-05-03T10:03:22.610Z,12104.00
2018-05-03T10:04:22.404Z,12080.00
2018-05-03T10:05:22.361Z,12072.00
2018-05-03T10:06:22.328Z,12068.00
2018-05-03T10:07:22.283Z,12124.00
2018-05-03T10:08:22.248Z,12228.00
2018-05-03T10:09:22.206Z,12408.00
2018-05-03T10:10:22.174Z,12508.00
2018-05-03T10:11:22.121Z,13088.00
2018-05-03T10:12:22.114Z,12612.00
2018-05-03T10:13:22.119Z,12900.00
2018-05-03T10:14:22.053Z,13072.00
2018-05-03T10:15:21.978Z,12796.00
2018-05-03T10:16:21.928Z,12744.00
2018-05-03T10:17:21.887Z,14688.00
2018-05-03T10:18:21.848Z,12660.00
2018-05-03T10:19:21.800Z,12544.00
2018-05-03T10:20:21.774Z,12452.00
2018-05-03T10:21:21.730Z,12388.00
2018-05-03T10:22:21.688Z,12432.00
2018-05-03T10:23:21.650Z,12372.00
2018-05-03T10:24:21.616Z,12388.00
2018-05-03T10:25:21.575Z,12500.00
2018-05-03T10:26:21.532Z,12536.00
2018-05-03T10:27:21.495Z,12792.00
2018-05-03T10:28:21.599Z,13108.00
2018-05-03T10:29:21.421Z,12380.00
2018-05-03T10:30:21.387Z,12140.00
2018-05-03T10:31:21.331Z,11464.00
2018-05-03T10:32:21.294Z,10952.00
2018-05-03T10:33:21.372Z,10580.00
2018-05-03T10:34:21.230Z,10408.00
2018-05-03T10:35:21.293Z,10180.00
2018-05-03T10:36:21.231Z,10144.00
2018-05-03T10:37:21.094Z,10232.00
2018-05-03T10:38:21.090Z,10392.00
2018-05-03T10:39:21.021Z,10608.00
2018-05-03T10:40:20.977Z,11072.00
2018-05-03T10:41:20.937Z,12956.00
2018-05-03T10:42:21.021Z,12856.00
2018-05-03T10:43:20.866Z,12968.00
2018-05-03T10:44:20.821Z,10668.00
2018-05-03T10:45:20.783Z,10636.00
2018-05-03T10:46:20.750Z,10576.00
2018-05-03T10:47:20.691Z,9828.00
2018-05-03T10:48:20.658Z,9672.00
2018-05-03T10:49:20.616Z,9708.00
2018-05-03T10:50:20.675Z,10152.00
2018-05-03T10:51:20.534Z,10088.00
2018-05-03T10:52:20.500Z,11496.00
2018-05-03T10:53:20.458Z,10260.00
2018-05-03T10:54:20.410Z,10172.00
2018-05-03T10:55:20.380Z,11160.00
2018-05-03T10:56:20.336Z,10940.00
2018-05-03T10:57:20.322Z,10864.00
2018-05-03T10:58:20.258Z,11244.00
2018-05-03T10:59:20.216Z,11424.00
2018-05-03T11:00:20.184Z,11532.00
2018-05-03T11:01:20.139Z,11864.00
2018-05-03T11:02:20.101Z,11568.00
2018-05-03T11:03:20.058Z,11032.00
2018-05-03T11:04:20.022Z,9876.00
2018-05-03T11:05:19.997Z,9132.00
2018-05-03T11:06:19.945Z,8844.00
2018-05-03T11:07:19.965Z,9280.00
2018-05-03T11:08:19.871Z,9260.00
2018-05-03T11:09:19.830Z,8952.00
2018-05-03T11:10:19.783Z,10156.00
2018-05-03T11:11:19.741Z,8792.00
2018-05-03T11:12:19.702Z,7840.00
2018-05-03T11:13:19.672Z,8040.00
2018-05-03T11:14:19.625Z,7952.00
2018-05-03T11:15:19.581Z,8116.00
2018-05-03T11:16:19.564Z,8440.00
2018-05-03T11:17:19.504Z,8768.00
2018-05-03T11:18:19.465Z,8932.00
2018-05-03T11:19:19.421Z,8408.00
2018-05-03T11:20:19.386Z,8360.00
2018-05-03T11:21:19.345Z,7784.00
2018-05-03T11:22:19.311Z,8448.00
2018-05-03T11:23:19.260Z,7288.00
2018-05-03T11:24:19.223Z,7488.00
2018-05-03T11:25:19.186Z,7648.00
2018-05-03T11:26:19.143Z,8280.00
2018-05-03T11:27:19.100Z,9280.00
2018-05-03T11:28:19.142Z,9556.00
2018-05-03T11:29:19.030Z,9548.00
2018-05-03T11:30:18.985Z,9292.00
2018-05-03T11:31:18.944Z,9272.00
2018-05-03T11:32:18.909Z,8872.00
2018-05-03T11:33:18.909Z,8856.00
2018-05-03T11:34:18.824Z,8752.00
2018-05-03T11:35:18.786Z,8612.00
2018-05-03T11:36:18.742Z,8140.00
2018-05-03T11:37:18.707Z,8032.00
2018-05-03T11:38:18.661Z,8216.00
2018-05-03T11:39:18.616Z,8208.00
2018-05-03T11:40:18.579Z,8620.00
2018-05-03T11:41:18.542Z,9024.00
2018-05-03T11:42:18.488Z,8948.00
2018-05-03T11:43:18.464Z,8888.00
2018-05-03T11:44:18.421Z,8844.00
2018-05-03T11:45:18.385Z,8872.00
2018-05-03T11:46:18.341Z,8872.00
2018-05-03T11:47:18.298Z,8792.00
2018-05-03T11:48:18.263Z,8672.00
2018-05-03T11:49:18.219Z,8596.00
2018-05-03T11:50:18.180Z,8600.00
2018-05-03T11:51:18.140Z,8596.00
2018-05-03T11:52:18.101Z,8528.00
2018-05-03T11:53:18.056Z,8328.00
2018-05-03T11:54:18.033Z,7112.00
2018-05-03T11:55:19.621Z,7588.00
2018-05-03T11:56:17.936Z,8508.00
2018-05-03T11:57:17.907Z,8504.00
2018-05-03T11:58:17.863Z,8536.00
2018-05-03T11:59:18.016Z,8532.00
2018-05-03T12:00:17.773Z,8544.00
2018-05-03T12:01:17.733Z,8576.00
2018-05-03T12:02:17.752Z,8676.00
2018-05-03T12:03:17.663Z,8696.00
2018-05-03T12:04:17.609Z,8724.00
2018-05-03T12:05:17.569Z,8924.00
2018-05-03T12:06:17.533Z,9156.00
2018-05-03T12:07:17.759Z,9480.00
2018-05-03T12:08:17.448Z,10092.00
2018-05-03T12:09:17.479Z,10480.00
2018-05-03T12:10:17.382Z,10936.00
2018-05-03T12:11:17.321Z,11572.00
2018-05-03T12:12:17.284Z,11556.00
2018-05-03T12:13:17.246Z,10744.00
2018-05-03T12:14:17.204Z,10780.00
2018-05-03T12:15:17.163Z,10784.00
2018-05-03T12:16:17.121Z,10604.00
2018-05-03T12:17:17.087Z,10744.00
2018-05-03T12:18:17.054Z,10868.00
2018-05-03T12:19:17.048Z,10796.00
2018-05-03T12:20:16.970Z,10536.00
2018-05-03T12:21:16.924Z,10308.00
2018-05-03T12:22:16.882Z,10064.00
2018-05-03T12:23:16.844Z,9992.00
2018-05-03T12:24:16.802Z,9996.00
2018-05-03T12:25:16.765Z,10072.00
2018-05-03T12:26:16.723Z,9864.00
2018-05-03T12:27:16.686Z,9844.00
2018-05-03T12:28:16.651Z,9816.00
2018-05-03T12:29:16.607Z,9608.00
2018-05-03T12:30:16.572Z,9368.00
2018-05-03T12:31:16.524Z,9228.00
2018-05-03T12:32:16.485Z,9256.00